createdAt,value
2019-03-24T00:02:15.560Z,5.60
2019-03-24T00:04:47.152Z,5.60
2019-03-24T00:07:18.550Z,5.60
2019-03-24T00:09:50.088Z,5.60
2019-03-24T00:12:21.716Z,5.60
2019-03-24T00:14:53.734Z,5.60
2019-03-24T00:17:25.153Z,5.60
2019-03-24T00:19:56.632Z,5.50
2019-03-24T00:22:28.030Z,5.50
2019-03-24T00:24:59.687Z,5.50
2019-03-24T00:27:31.212Z,5.50
2019-03-24T00:30:02.711Z,5.50
2019-03-24T00:32:34.174Z,5.60
2019-03-24T00:35:05.964Z,5.60
2019-03-24T00:37:37.443Z,5.60
2019-03-24T00:40:09.190Z,5.60
2019-03-24T00:42:40.696Z,5.60
2019-03-24T00:45:12.603Z,5.70
2019-03-24T00:47:44.029Z,5.60
2019-03-24T00:50:15.736Z,5.60
2019-03-24T00:52:47.149Z,5.70
2019-03-24T00:55:18.719Z,5.60
2019-03-24T00:57:50.198Z,5.60
2019-03-24T01:00:28.191Z,5.60
2019-03-24T01:02:59.718Z,5.60
2019-03-24T01:05:31.297Z,5.70
2019-03-24T01:08:02.853Z,5.60
2019-03-24T01:10:35.607Z,5.60
2019-03-24T01:13:07.302Z,5.60
2019-03-24T01:15:47.767Z,5.60
2019-03-24T01:18:17.395Z,5.60
2019-03-24T01:20:49.129Z,5.60
2019-03-24T01:23:20.698Z,5.50
2019-03-24T01:25:52.461Z,5.50
2019-03-24T01:28:23.903Z,5.40
2019-03-24T01:30:55.536Z,5.40
2019-03-24T01:33:26.970Z,5.40
2019-03-24T01:35:58.629Z,5.40
2019-03-24T01:38:31.266Z,5.40
2019-03-24T01:41:02.945Z,5.30
2019-03-24T01:43:34.521Z,5.30
2019-03-24T01:46:06.067Z,5.30
2019-03-24T01:48:37.477Z,5.30
2019-03-24T01:51:09.006Z,5.30
2019-03-24T01:53:40.438Z,5.30
2019-03-24T01:56:12.125Z,5.30
2019-03-24T01:58:43.558Z,5.20
2019-03-24T02:01:15.096Z,5.20
2019-03-24T02:03:46.546Z,5.10
2019-03-24T02:06:18.036Z,5.10
2019-03-24T02:08:49.575Z,5.10
2019-03-24T02:11:21.146Z,5.00
2019-03-24T02:13:52.687Z,4.90
2019-03-24T02:16:24.190Z,4.90
2019-03-24T02:18:55.662Z,4.90
2019-03-24T02:21:29.685Z,4.90
2019-03-24T02:24:01.256Z,4.90
2019-03-24T02:26:32.919Z,4.80
2019-03-24T02:29:04.448Z,4.80
2019-03-24T02:31:35.946Z,4.80
2019-03-24T02:34:07.555Z,4.80
2019-03-24T02:36:39.068Z,4.80
2019-03-24T02:39:10.614Z,4.70
2019-03-24T02:41:42.187Z,4.70
2019-03-24T02:44:13.716Z,4.70
2019-03-24T02:46:45.158Z,4.70
2019-03-24T02:49:16.620Z,4.70
2019-03-24T02:51:48.232Z,4.70
2019-03-24T02:54:19.830Z,4.60
2019-03-24T02:56:51.585Z,4.60
2019-03-24T02:59:23.213Z,4.60
2019-03-24T03:01:54.839Z,4.60
2019-03-24T03:04:26.279Z,4.60
2019-03-24T03:06:57.747Z,4.60
2019-03-24T03:09:29.203Z,4.60
2019-03-24T03:12:00.739Z,4.50
2019-03-24T03:14:32.228Z,4.60
2019-03-24T03:17:03.696Z,4.60
2019-03-24T03:19:35.267Z,4.60
2019-03-24T03:22:07.025Z,4.50
2019-03-24T03:24:38.470Z,4.50
2019-03-24T03:27:09.950Z,4.50
2019-03-24T03:29:41.476Z,4.50
2019-03-24T03:32:12.984Z,4.50
2019-03-24T03:34:44.421Z,4.40
2019-03-24T03:37:15.938Z,4.40
2019-03-24T03:39:48.572Z,4.40
2019-03-24T03:42:20.155Z,4.40
2019-03-24T03:44:51.637Z,4.40
2019-03-24T03:47:23.096Z,4.30
2019-03-24T03:49:54.525Z,4.30
2019-03-24T03:52:26.070Z,4.30
2019-03-24T03:54:57.652Z,4.20
2019-03-24T03:57:29.254Z,4.30
2019-03-24T04:00:00.758Z,4.20
2019-03-24T04:02:32.224Z,4.20
2019-03-24T04:05:03.743Z,4.20
2019-03-24T04:07:35.205Z,4.20
2019-03-24T04:10:07.376Z,4.20
2019-03-24T04:12:39.018Z,4.10
2019-03-24T04:15:10.703Z,4.10
2019-03-24T04:17:42.257Z,4.10
2019-03-24T04:20:13.952Z,4.10
2019-03-24T04:22:45.659Z,4.10
2019-03-24T04:25:18.231Z,4.10
2019-03-24T04:27:49.757Z,4.00
2019-03-24T04:30:21.307Z,4.00
2019-03-24T04:32:52.776Z,4.00
2019-03-24T04:35:24.894Z,3.90
2019-03-24T04:37:56.561Z,3.90
2019-03-24T04:40:28.723Z,3.90
2019-03-24T04:43:00.502Z,4.00
2019-03-24T04:45:32.059Z,4.00
2019-03-24T04:48:03.589Z,4.00
2019-03-24T04:50:35.727Z,3.90
2019-03-24T04:53:07.398Z,4.00
2019-03-24T04:55:38.986Z,4.00
2019-03-24T04:58:10.771Z,3.90
2019-03-24T05:00:42.443Z,3.90
2019-03-24T05:03:14.066Z,3.90
2019-03-24T05:05:46.436Z,3.90
2019-03-24T05:08:18.252Z,3.90
2019-03-24T05:10:49.857Z,3.90
2019-03-24T05:13:21.321Z,3.90
2019-03-24T05:15:53.932Z,4.00
2019-03-24T05:18:25.390Z,4.00
2019-03-24T05:20:56.839Z,4.00
2019-03-24T05:23:31.347Z,4.10
2019-03-24T05:26:02.921Z,4.10
2019-03-24T05:28:34.401Z,4.10
2019-03-24T05:31:05.962Z,4.10
2019-03-24T05:33:37.538Z,4.20
2019-03-24T05:36:09.080Z,4.30
2019-03-24T05:38:40.639Z,4.30
2019-03-24T05:41:12.228Z,4.30
2019-03-24T05:43:45.267Z,4.40
2019-03-24T05:46:16.806Z,4.50
2019-03-24T05:48:48.405Z,4.60
2019-03-24T05:51:20.018Z,4.70
2019-03-24T05:53:51.486Z,4.80
2019-03-24T05:56:22.977Z,4.90
2019-03-24T05:58:54.455Z,5.00
2019-03-24T06:01:28.812Z,5.10
2019-03-24T06:04:00.504Z,5.10
2019-03-24T06:06:31.976Z,5.20
2019-03-24T06:09:04.943Z,5.30
2019-03-24T06:11:36.535Z,5.40
2019-03-24T06:14:08.114Z,5.40
2019-03-24T06:16:39.680Z,5.40
2019-03-24T06:19:11.292Z,5.40
2019-03-24T06:21:42.667Z,5.50
2019-03-24T06:24:14.839Z,5.60
2019-03-24T06:26:46.400Z,5.70
2019-03-24T06:29:17.965Z,5.70
2019-03-24T06:31:49.478Z,5.70
2019-03-24T06:34:21.480Z,5.70
2019-03-24T06:36:52.827Z,5.70
2019-03-24T06:39:24.346Z,5.70
2019-03-24T06:41:55.964Z,5.80
2019-03-24T06:44:27.510Z,5.80
2019-03-24T06:46:59.034Z,5.80
2019-03-24T06:49:30.492Z,5.90
2019-03-24T06:52:01.915Z,5.90
2019-03-24T06:54:33.401Z,5.90
2019-03-24T06:57:04.850Z,6.00
2019-03-24T06:59:36.400Z,6.10
2019-03-24T07:02:08.070Z,6.00
2019-03-24T07:04:39.727Z,6.00
2019-03-24T07:07:11.311Z,6.00
2019-03-24T07:09:42.784Z,6.00
2019-03-24T07:12:14.435Z,6.00
2019-03-24T07:14:45.993Z,5.90
2019-03-24T07:17:17.506Z,5.90
2019-03-24T07:19:49.027Z,6.00
2019-03-24T07:22:20.447Z,6.00
2019-03-24T07:24:52.035Z,6.10
2019-03-24T07:27:23.452Z,6.20
2019-03-24T07:29:55.119Z,6.20
2019-03-24T07:32:26.669Z,6.30
2019-03-24T07:34:58.332Z,6.40
2019-03-24T07:37:29.875Z,6.60
2019-03-24T07:40:01.371Z,6.70
2019-03-24T07:42:33.801Z,6.70
2019-03-24T07:45:05.725Z,6.80
2019-03-24T07:47:37.889Z,6.70
2019-03-24T07:50:10.013Z,6.70
2019-03-24T07:52:41.453Z,6.70
2019-03-24T07:55:14.265Z,6.60
2019-03-24T07:57:45.818Z,6.70
2019-03-24T08:00:29.335Z,6.60
2019-03-24T08:03:00.805Z,6.80
2019-03-24T08:05:32.423Z,6.90
2019-03-24T08:08:04.077Z,7.00
2019-03-24T08:10:35.575Z,7.00
2019-03-24T08:13:07.391Z,7.10
2019-03-24T08:15:39.088Z,7.20
2019-03-24T08:18:10.567Z,7.20
2019-03-24T08:20:42.252Z,7.20
2019-03-24T08:23:13.838Z,7.20
2019-03-24T08:25:45.487Z,7.20
2019-03-24T08:28:17.274Z,7.40
2019-03-24T08:30:48.840Z,7.40
2019-03-24T08:33:20.557Z,7.60
2019-03-24T08:35:52.256Z,7.60
2019-03-24T08:38:23.645Z,7.80
2019-03-24T08:40:55.325Z,8.00
2019-03-24T08:43:27.961Z,8.20
2019-03-24T08:46:00.579Z,8.50
2019-03-24T08:48:40.940Z,8.70
2019-03-24T08:51:07.219Z,9.00
2019-03-24T08:53:38.689Z,9.10
2019-03-24T08:56:10.412Z,9.20
2019-03-24T08:58:42.085Z,9.30
2019-03-24T09:01:17.772Z,9.30
2019-03-24T09:03:49.469Z,9.40
2019-03-24T09:06:22.325Z,9.30
2019-03-24T09:08:53.913Z,9.30
2019-03-24T09:11:31.198Z,9.40
2019-03-24T09:13:58.567Z,9.40
2019-03-24T09:16:30.030Z,9.50
2019-03-24T09:19:01.620Z,9.70
2019-03-24T09:21:33.219Z,9.90
2019-03-24T09:24:05.225Z,9.90
2019-03-24T09:26:37.008Z,9.90
2019-03-24T09:29:08.591Z,10.10
2019-03-24T09:31:40.366Z,10.40
2019-03-24T09:34:11.935Z,10.90
2019-03-24T09:36:43.480Z,11.20
2019-03-24T09:39:15.162Z,11.30
2019-03-24T09:41:46.815Z,11.20
2019-03-24T09:44:18.735Z,11.20
2019-03-24T09:46:50.431Z,11.10
2019-03-24T09:49:22.286Z,11.00
2019-03-24T09:51:54.016Z,11.10
2019-03-24T09:54:25.855Z,11.20
2019-03-24T09:56:57.527Z,11.20
2019-03-24T09:59:29.134Z,11.40
2019-03-24T10:02:00.988Z,11.60
2019-03-24T10:04:32.738Z,11.70
2019-03-24T10:07:04.351Z,11.50
2019-03-24T10:09:35.868Z,11.40
2019-03-24T10:12:07.579Z,11.30
2019-03-24T10:14:39.429Z,11.20
2019-03-24T10:17:12.059Z,11.20
2019-03-24T10:19:43.775Z,11.30
2019-03-24T10:22:15.694Z,11.30
2019-03-24T10:24:47.307Z,11.30
2019-03-24T10:27:18.959Z,11.30
2019-03-24T10:29:50.680Z,11.30
2019-03-24T10:32:22.200Z,11.30
2019-03-24T10:34:53.690Z,11.40
2019-03-24T10:37:25.366Z,11.50
2019-03-24T10:39:56.834Z,11.70
2019-03-24T10:42:28.489Z,11.80
2019-03-24T10:44:59.895Z,12.00
2019-03-24T10:47:31.532Z,12.10
2019-03-24T10:50:03.116Z,12.20
2019-03-24T10:52:34.816Z,12.10
2019-03-24T10:55:07.605Z,12.00
2019-03-24T10:57:39.493Z,12.00
2019-03-24T11:00:12.611Z,11.90
2019-03-24T11:02:44.252Z,12.00
2019-03-24T11:05:17.086Z,12.10
2019-03-24T11:07:48.672Z,12.30
2019-03-24T11:10:20.133Z,12.60
2019-03-24T11:12:51.931Z,12.80
2019-03-24T11:15:23.395Z,12.70
2019-03-24T11:17:55.032Z,12.70
2019-03-24T11:20:27.648Z,12.80
2019-03-24T11:22:59.362Z,13.00
2019-03-24T11:25:30.906Z,12.80
2019-03-24T11:28:02.472Z,12.40
2019-03-24T11:30:34.221Z,12.20
2019-03-24T11:33:06.089Z,12.20
2019-03-24T11:35:37.906Z,12.10
2019-03-24T11:38:09.536Z,12.10
2019-03-24T11:40:41.120Z,12.00
2019-03-24T11:43:12.686Z,11.60
2019-03-24T11:45:44.251Z,11.20
2019-03-24T11:48:16.042Z,10.80
2019-03-24T11:50:47.533Z,10.50
2019-03-24T11:53:19.081Z,10.30
2019-03-24T11:55:50.651Z,10.40
2019-03-24T11:58:23.165Z,10.50
2019-03-24T12:00:54.740Z,10.50
2019-03-24T12:03:26.471Z,10.60
2019-03-24T12:05:58.160Z,10.50
2019-03-24T12:08:30.020Z,10.50
2019-03-24T12:11:01.684Z,10.60
2019-03-24T12:13:33.191Z,10.90
2019-03-24T12:16:04.807Z,10.90
2019-03-24T12:18:36.499Z,10.90
2019-03-24T12:21:08.088Z,10.90
2019-03-24T12:23:39.700Z,10.90
2019-03-24T12:26:11.393Z,10.90
2019-03-24T12:28:43.062Z,10.80
2019-03-24T12:31:14.615Z,10.80
2019-03-24T12:33:46.199Z,10.80
2019-03-24T12:36:17.956Z,10.90
2019-03-24T12:38:49.626Z,10.90
2019-03-24T12:41:21.215Z,11.00
2019-03-24T12:43:52.800Z,11.10
2019-03-24T12:46:24.461Z,11.20
2019-03-24T12:48:55.951Z,11.30
2019-03-24T12:51:27.390Z,11.50
2019-03-24T12:53:58.963Z,11.70
2019-03-24T12:56:30.592Z,11.80
2019-03-24T12:59:02.185Z,11.90
2019-03-24T13:01:33.779Z,11.90
2019-03-24T13:04:05.551Z,11.80
2019-03-24T13:06:37.000Z,11.80
2019-03-24T13:09:09.326Z,11.80
2019-03-24T13:11:40.751Z,11.80
2019-03-24T13:14:12.324Z,11.70
2019-03-24T13:16:43.924Z,11.70
2019-03-24T13:19:15.356Z,11.70
2019-03-24T13:21:46.967Z,11.80
2019-03-24T13:24:18.523Z,11.60
2019-03-24T13:26:50.136Z,11.30
2019-03-24T13:29:21.629Z,11.30
2019-03-24T13:31:53.194Z,11.20
2019-03-24T13:34:24.702Z,11.20
2019-03-24T13:36:57.160Z,11.40
2019-03-24T13:39:29.659Z,11.40
2019-03-24T13:42:01.099Z,11.50
2019-03-24T13:44:32.637Z,11.60
2019-03-24T13:47:04.033Z,11.70
2019-03-24T13:49:36.192Z,11.80
2019-03-24T13:52:08.086Z,11.90
2019-03-24T13:54:40.002Z,12.00
2019-03-24T13:57:11.794Z,12.40
2019-03-24T13:59:43.302Z,12.90
2019-03-24T14:02:14.990Z,13.30
2019-03-24T14:04:47.546Z,13.70
2019-03-24T14:07:19.213Z,14.20
2019-03-24T14:09:50.842Z,14.60
2019-03-24T14:12:22.254Z,14.90
2019-03-24T14:14:53.788Z,15.60
2019-03-24T14:17:25.336Z,16.30
2019-03-24T14:19:57.012Z,16.80
2019-03-24T14:22:28.587Z,17.40
2019-03-24T14:25:00.562Z,17.90
2019-03-24T14:27:32.051Z,18.20
2019-03-24T14:30:03.731Z,18.20
2019-03-24T14:32:35.241Z,18.40
2019-03-24T14:35:07.168Z,17.80
2019-03-24T14:37:38.836Z,16.80
2019-03-24T14:40:12.075Z,16.00
2019-03-24T14:42:43.730Z,15.40
2019-03-24T14:45:15.633Z,14.80
2019-03-24T14:47:47.234Z,13.90
2019-03-24T14:50:19.108Z,13.20
2019-03-24T14:52:51.587Z,12.50
2019-03-24T14:55:23.636Z,11.90
2019-03-24T14:57:55.146Z,11.40
2019-03-24T15:00:36.161Z,11.00
2019-03-24T15:03:08.398Z,10.70
2019-03-24T15:05:40.196Z,10.50
2019-03-24T15:08:13.332Z,10.30
2019-03-24T15:10:45.260Z,10.10
2019-03-24T15:13:16.977Z,9.90
2019-03-24T15:15:48.653Z,9.90
2019-03-24T15:18:20.218Z,9.90
2019-03-24T15:20:52.936Z,9.90
2019-03-24T15:23:24.654Z,10.10
2019-03-24T15:25:56.396Z,10.50
2019-03-24T15:28:28.011Z,11.20
2019-03-24T15:31:00.881Z,12.60
2019-03-24T15:33:32.688Z,14.40
2019-03-24T15:36:04.369Z,15.50
2019-03-24T15:38:35.873Z,16.60
2019-03-24T15:41:08.558Z,17.10
2019-03-24T15:43:43.210Z,16.90
2019-03-24T15:46:14.929Z,16.60
2019-03-24T15:48:46.527Z,16.60
2019-03-24T15:51:18.196Z,16.30
2019-03-24T15:53:49.871Z,15.70
2019-03-24T15:56:21.522Z,15.30
2019-03-24T15:58:52.995Z,14.80
2019-03-24T16:01:24.569Z,14.20
2019-03-24T16:03:56.114Z,13.80
2019-03-24T16:06:27.807Z,13.40
2019-03-24T16:09:10.362Z,13.40
2019-03-24T16:11:52.120Z,13.80
2019-03-24T16:14:35.154Z,14.20
2019-03-24T16:17:16.301Z,14.40
2019-03-24T16:19:58.109Z,14.00
2019-03-24T16:22:32.571Z,13.30
2019-03-24T16:25:04.394Z,12.10
2019-03-24T16:27:36.488Z,11.10
2019-03-24T16:30:11.087Z,10.40
2019-03-24T16:32:45.894Z,10.00
2019-03-24T16:35:19.901Z,9.60
2019-03-24T16:37:52.234Z,9.30
2019-03-24T16:40:25.285Z,9.00
2019-03-24T16:42:59.347Z,8.80
2019-03-24T16:45:33.307Z,8.70
2019-03-24T16:48:05.744Z,8.60
2019-03-24T16:50:38.972Z,8.40
2019-03-24T16:53:13.595Z,8.20
2019-03-24T16:55:49.713Z,8.10
2019-03-24T16:58:23.742Z,7.90
2019-03-24T17:00:56.124Z,7.70
2019-03-24T17:03:28.517Z,7.50
2019-03-24T17:06:04.325Z,7.40
2019-03-24T17:08:38.184Z,7.30
2019-03-24T17:11:12.142Z,7.20
2019-03-24T17:13:46.901Z,7.10
2019-03-24T17:16:18.843Z,7.00
2019-03-24T17:18:52.096Z,7.00
2019-03-24T17:21:35.213Z,6.80
2019-03-24T17:24:09.494Z,6.70
2019-03-24T17:26:41.094Z,6.70
2019-03-24T17:29:13.187Z,6.60
2019-03-24T17:31:45.971Z,6.50
2019-03-24T17:37:25.948Z,6.40
2019-03-24T17:39:57.774Z,6.30
2019-03-24T17:42:29.982Z,6.30
2019-03-24T17:45:02.286Z,6.20
2019-03-24T17:47:34.806Z,6.20
2019-03-24T17:50:08.644Z,6.10
2019-03-24T17:52:41.125Z,6.10
2019-03-24T17:55:14.212Z,6.00
2019-03-24T17:57:46.530Z,5.90
2019-03-24T18:00:21.635Z,5.90
2019-03-24T18:02:53.266Z,5.80
2019-03-24T18:05:24.829Z,5.70
2019-03-24T18:07:56.531Z,5.60
2019-03-24T18:10:28.580Z,5.60
2019-03-24T18:13:00.236Z,5.60
2019-03-24T18:15:32.360Z,5.60
2019-03-24T18:18:04.675Z,5.50
2019-03-24T18:20:37.813Z,5.50
2019-03-24T18:23:10.258Z,5.40
2019-03-24T18:25:42.536Z,5.30
2019-03-24T18:28:14.906Z,5.30
2019-03-24T18:30:47.799Z,5.30
2019-03-24T18:33:20.296Z,5.20
2019-03-24T18:35:52.544Z,5.20
2019-03-24T18:38:24.723Z,5.20
2019-03-24T18:40:56.309Z,5.20
2019-03-24T18:43:28.585Z,5.20
2019-03-24T18:46:00.814Z,5.20
2019-03-24T18:48:33.535Z,5.10
2019-03-24T18:51:06.136Z,5.10
2019-03-24T18:53:38.240Z,5.10
2019-03-24T18:56:10.613Z,5.10
2019-03-24T18:58:42.936Z,5.00
2019-03-24T19:01:14.950Z,5.00
2019-03-24T19:03:46.816Z,5.00
2019-03-24T19:06:18.815Z,5.00
2019-03-24T19:08:51.595Z,5.10
2019-03-24T19:11:23.496Z,5.10
2019-03-24T19:13:55.622Z,5.00
2019-03-24T19:16:27.512Z,5.00
2019-03-24T19:21:50.704Z,4.90
2019-03-24T19:24:22.293Z,4.80
2019-03-24T19:26:53.918Z,4.80
2019-03-24T19:29:25.474Z,4.80
2019-03-24T19:31:57.245Z,4.80
2019-03-24T19:34:28.996Z,4.70
2019-03-24T19:37:00.745Z,4.70
2019-03-24T19:39:32.483Z,4.70
2019-03-24T19:42:04.393Z,4.60
2019-03-24T19:44:36.103Z,4.60
2019-03-24T19:47:07.764Z,4.50
2019-03-24T19:49:40.620Z,4.50
2019-03-24T19:52:12.225Z,4.40
2019-03-24T19:54:44.186Z,4.40
2019-03-24T19:57:15.777Z,4.40
2019-03-24T19:59:47.422Z,4.40
2019-03-24T20:02:19.082Z,4.40
2019-03-24T20:04:51.242Z,4.30
2019-03-24T20:07:22.861Z,4.30
2019-03-24T20:09:54.513Z,4.30
2019-03-24T20:12:25.959Z,4.30
2019-03-24T20:15:00.580Z,4.30
2019-03-24T20:17:32.388Z,4.20
2019-03-24T20:20:04.129Z,4.20
2019-03-24T20:22:35.733Z,4.20
2019-03-24T20:25:07.775Z,4.20
2019-03-24T20:27:39.578Z,4.20
2019-03-24T20:30:12.877Z,4.20
2019-03-24T20:32:44.694Z,4.10
2019-03-24T20:35:16.455Z,4.10
2019-03-24T20:37:48.237Z,4.10
2019-03-24T20:40:21.083Z,4.10
2019-03-24T20:42:53.004Z,4.10
2019-03-24T20:45:24.654Z,4.00
2019-03-24T20:47:56.269Z,4.00
2019-03-24T20:50:28.025Z,4.00
2019-03-24T20:53:08.719Z,3.90
2019-03-24T20:55:34.459Z,3.90
2019-03-24T20:58:06.415Z,3.80
2019-03-24T21:00:38.943Z,3.80
2019-03-24T21:03:10.869Z,3.70
2019-03-24T21:05:42.441Z,3.70
2019-03-24T21:08:13.916Z,3.70
2019-03-24T21:10:45.668Z,3.60
2019-03-24T21:13:17.401Z,3.60
2019-03-24T21:15:49.293Z,3.60
2019-03-24T21:18:21.023Z,3.50
2019-03-24T21:20:52.821Z,3.50
2019-03-24T21:23:29.531Z,3.50
2019-03-24T21:25:57.916Z,3.40
2019-03-24T21:28:29.456Z,3.40
2019-03-24T21:31:00.970Z,3.40
2019-03-24T21:33:32.604Z,3.40
2019-03-24T21:36:04.447Z,3.40
2019-03-24T21:38:36.113Z,3.30
2019-03-24T21:41:07.782Z,3.30
2019-03-24T21:43:39.533Z,3.30
2019-03-24T21:46:11.301Z,3.30
2019-03-24T21:48:42.869Z,3.30
2019-03-24T21:51:14.538Z,3.30
2019-03-24T21:53:45.997Z,3.30
2019-03-24T21:56:17.752Z,3.30
2019-03-24T21:58:49.338Z,3.30
2019-03-24T22:01:21.250Z,3.30
2019-03-24T22:03:52.907Z,3.30
2019-03-24T22:06:24.382Z,3.30
2019-03-24T22:08:58.324Z,3.40
2019-03-24T22:11:30.140Z,3.40
2019-03-24T22:14:01.792Z,3.40
2019-03-24T22:16:33.614Z,3.40
2019-03-24T22:19:05.194Z,3.50
2019-03-24T22:21:37.197Z,3.50
2019-03-24T22:24:08.809Z,3.50
2019-03-24T22:26:40.502Z,3.40
2019-03-24T22:29:11.993Z,3.40
2019-03-24T22:31:43.414Z,3.40
2019-03-24T22:34:14.917Z,3.40
2019-03-24T22:36:46.541Z,3.40
2019-03-24T22:39:21.272Z,3.40
2019-03-24T22:41:52.852Z,3.40
2019-03-24T22:44:24.411Z,3.30
2019-03-24T22:46:56.106Z,3.30
2019-03-24T22:49:27.978Z,3.30
2019-03-24T22:52:07.165Z,3.30
2019-03-24T22:54:32.993Z,3.30
2019-03-24T22:57:04.703Z,3.30
2019-03-24T22:59:37.390Z,3.30
2019-03-24T23:02:09.235Z,3.20
2019-03-24T23:04:40.958Z,3.20
2019-03-24T23:07:12.610Z,3.20
2019-03-24T23:09:44.177Z,3.20
2019-03-24T23:12:15.839Z,3.20
2019-03-24T23:14:47.408Z,3.20
2019-03-24T23:17:19.153Z,3.20
2019-03-24T23:19:50.588Z,3.20
2019-03-24T23:22:22.283Z,3.30
2019-03-24T23:24:53.761Z,3.30
2019-03-24T23:27:25.493Z,3.30
2019-03-24T23:29:57.083Z,3.30
2019-03-24T23:32:28.719Z,3.30
2019-03-24T23:35:00.405Z,3.40
2019-03-24T23:37:32.027Z,3.40
2019-03-24T23:40:03.799Z,3.40
2019-03-24T23:42:35.506Z,3.40
2019-03-24T23:45:07.665Z,3.40
2019-03-24T23:47:39.161Z,3.40
2019-03-24T23:50:11.053Z,3.30
2019-03-24T23:52:42.726Z,3.30
2019-03-24T23:55:14.481Z,3.30
2019-03-24T23:57:45.964Z,3.20
